sensor_id;sensor_type;location;lat;lon;timestamp;P1;durP1;ratioP1;P2;durP2;ratioP2
10967;SDS011;5536;49.602;10.980;2022-11-11T00:01:05;1.03;;;1.03;;
10967;SDS011;5536;49.602;10.980;2022-11-11T00:03:33;0.70;;;0.70;;
10967;SDS011;5536;49.602;10.980;2022-11-11T00:06:01;1.60;;;1.13;;
10967;SDS011;5536;49.602;10.980;2022-11-11T00:08:28;0.53;;;0.53;;
10967;SDS011;5536;49.602;10.980;2022-11-11T00:11:02;0.37;;;0.37;;
10967;SDS011;5536;49.602;10.980;2022-11-11T00:13:31;0.30;;;0.30;;
10967;SDS011;5536;49.602;10.980;2022-11-11T00:16:02;0.53;;;0.53;;
10967;SDS011;5536;49.602;10.980;2022-11-11T00:18:30;0.40;;;0.40;;
10967;SDS011;5536;49.602;10.980;2022-11-11T00:21:14;0.70;;;0.70;;
10967;SDS011;5536;49.602;10.980;2022-11-11T00:23:59;0.47;;;0.47;;
10967;SDS011;5536;49.602;10.980;2022-11-11T00:26:56;1.80;;;1.13;;
10967;SDS011;5536;49.602;10.980;2022-11-11T00:29:23;0.53;;;0.53;;
10967;SDS011;5536;49.602;10.980;2022-11-11T00:31:50;1.33;;;1.33;;
10967;SDS011;5536;49.602;10.980;2022-11-11T00:34:35;0.67;;;0.67;;
10967;SDS011;5536;49.602;10.980;2022-11-11T00:37:02;0.30;;;0.30;;
10967;SDS011;5536;49.602;10.980;2022-11-11T00:39:28;1.33;;;1.07;;
10967;SDS011;5536;49.602;10.980;2022-11-11T00:41:56;0.50;;;0.50;;
10967;SDS011;5536;49.602;10.980;2022-11-11T00:44:23;0.90;;;0.90;;
10967;SDS011;5536;49.602;10.980;2022-11-11T00:46:50;0.73;;;0.70;;
10967;SDS011;5536;49.602;10.980;2022-11-11T00:49:34;0.67;;;0.67;;
10967;SDS011;5536;49.602;10.980;2022-11-11T00:52:19;1.10;;;1.00;;
10967;SDS011;5536;49.602;10.980;2022-11-11T00:54:46;0.43;;;0.43;;
10967;SDS011;5536;49.602;10.980;2022-11-11T00:57:14;1.27;;;1.03;;
10967;SDS011;5536;49.602;10.980;2022-11-11T00:59:41;1.43;;;1.33;;
10967;SDS011;5536;49.602;10.980;2022-11-11T01:02:08;0.50;;;0.50;;
10967;SDS011;5536;49.602;10.980;2022-11-11T01:04:35;0.43;;;0.43;;
10967;SDS011;5536;49.602;10.980;2022-11-11T01:07:02;0.50;;;0.50;;
10967;SDS011;5536;49.602;10.980;2022-11-11T01:09:30;6.13;;;0.93;;
10967;SDS011;5536;49.602;10.980;2022-11-11T01:11:58;1.33;;;1.33;;
10967;SDS011;5536;49.602;10.980;2022-11-11T01:14:26;0.30;;;0.30;;
10967;SDS011;5536;49.602;10.980;2022-11-11T01:16:53;0.43;;;0.43;;
10967;SDS011;5536;49.602;10.980;2022-11-11T01:19:20;1.03;;;1.03;;
10967;SDS011;5536;49.602;10.980;2022-11-11T01:21:47;0.73;;;0.57;;
10967;SDS011;5536;49.602;10.980;2022-11-11T01:24:14;2.43;;;1.07;;
10967;SDS011;5536;49.602;10.980;2022-11-11T01:26:41;0.80;;;0.80;;
10967;SDS011;5536;49.602;10.980;2022-11-11T01:29:08;0.60;;;0.60;;
10967;SDS011;5536;49.602;10.980;2022-11-11T01:31:37;0.80;;;0.80;;
10967;SDS011;5536;49.602;10.980;2022-11-11T01:34:04;0.40;;;0.40;;
10967;SDS011;5536;49.602;10.980;2022-11-11T01:36:33;0.70;;;0.70;;
10967;SDS011;5536;49.602;10.980;2022-11-11T01:39:00;0.73;;;0.40;;
10967;SDS011;5536;49.602;10.980;2022-11-11T01:41:28;1.17;;;1.17;;
10967;SDS011;5536;49.602;10.980;2022-11-11T01:44:01;0.63;;;0.63;;
10967;SDS011;5536;49.602;10.980;2022-11-11T01:46:41;0.60;;;0.60;;
10967;SDS011;5536;49.602;10.980;2022-11-11T01:49:21;0.50;;;0.50;;
10967;SDS011;5536;49.602;10.980;2022-11-11T01:51:55;0.90;;;0.83;;
10967;SDS011;5536;49.602;10.980;2022-11-11T01:54:29;0.90;;;0.90;;
10967;SDS011;5536;49.602;10.980;2022-11-11T01:57:03;0.40;;;0.40;;
10967;SDS011;5536;49.602;10.980;2022-11-11T01:59:32;0.33;;;0.33;;
10967;SDS011;5536;49.602;10.980;2022-11-11T02:02:04;0.77;;;0.77;;
10967;SDS011;5536;49.602;10.980;2022-11-11T02:04:37;1.00;;;1.00;;
10967;SDS011;5536;49.602;10.980;2022-11-11T02:07:21;0.83;;;0.83;;
10967;SDS011;5536;49.602;10.980;2022-11-11T02:09:49;2.33;;;1.27;;
10967;SDS011;5536;49.602;10.980;2022-11-11T02:12:18;1.00;;;1.00;;
10967;SDS011;5536;49.602;10.980;2022-11-11T02:15:03;1.37;;;0.80;;
10967;SDS011;5536;49.602;10.980;2022-11-11T02:17:32;1.63;;;1.17;;
10967;SDS011;5536;49.602;10.980;2022-11-11T02:20:00;1.20;;;1.17;;
10967;SDS011;5536;49.602;10.980;2022-11-11T02:22:30;0.87;;;0.87;;
10967;SDS011;5536;49.602;10.980;2022-11-11T02:25:06;0.40;;;0.40;;
10967;SDS011;5536;49.602;10.980;2022-11-11T02:27:35;0.43;;;0.43;;
10967;SDS011;5536;49.602;10.980;2022-11-11T02:30:07;0.80;;;0.80;;
10967;SDS011;5536;49.602;10.980;2022-11-11T02:32:39;1.37;;;1.27;;
10967;SDS011;5536;49.602;10.980;2022-11-11T02:35:10;0.70;;;0.70;;
10967;SDS011;5536;49.602;10.980;2022-11-11T02:37:40;0.50;;;0.50;;
10967;SDS011;5536;49.602;10.980;2022-11-11T02:40:12;3.83;;;1.63;;
10967;SDS011;5536;49.602;10.980;2022-11-11T02:42:41;0.57;;;0.57;;
10967;SDS011;5536;49.602;10.980;2022-11-11T02:45:09;0.83;;;0.83;;
10967;SDS011;5536;49.602;10.980;2022-11-11T02:47:36;1.00;;;1.00;;
10967;SDS011;5536;49.602;10.980;2022-11-11T02:50:04;1.17;;;1.17;;
10967;SDS011;5536;49.602;10.980;2022-11-11T02:52:31;0.77;;;0.67;;
10967;SDS011;5536;49.602;10.980;2022-11-11T02:54:58;0.90;;;0.90;;
10967;SDS011;5536;49.602;10.980;2022-11-11T02:57:28;0.60;;;0.50;;
10967;SDS011;5536;49.602;10.980;2022-11-11T02:59:56;0.90;;;0.90;;
10967;SDS011;5536;49.602;10.980;2022-11-11T03:02:25;0.70;;;0.60;;
10967;SDS011;5536;49.602;10.980;2022-11-11T03:04:53;0.40;;;0.40;;
10967;SDS011;5536;49.602;10.980;2022-11-11T03:07:20;1.17;;;1.07;;
10967;SDS011;5536;49.602;10.980;2022-11-11T03:09:48;1.33;;;1.13;;
10967;SDS011;5536;49.602;10.980;2022-11-11T03:12:15;1.80;;;0.93;;
10967;SDS011;5536;49.602;10.980;2022-11-11T03:14:44;0.60;;;0.60;;
10967;SDS011;5536;49.602;10.980;2022-11-11T03:17:11;0.70;;;0.70;;
10967;SDS011;5536;49.602;10.980;2022-11-11T03:19:55;2.30;;;0.60;;
10967;SDS011;5536;49.602;10.980;2022-11-11T03:22:42;1.27;;;1.17;;
10967;SDS011;5536;49.602;10.980;2022-11-11T03:25:08;0.50;;;0.50;;
10967;SDS011;5536;49.602;10.980;2022-11-11T03:27:52;1.13;;;1.13;;
10967;SDS011;5536;49.602;10.980;2022-11-11T03:30:21;0.77;;;0.70;;
10967;SDS011;5536;49.602;10.980;2022-11-11T03:32:48;0.83;;;0.67;;
10967;SDS011;5536;49.602;10.980;2022-11-11T03:35:15;2.77;;;1.47;;
10967;SDS011;5536;49.602;10.980;2022-11-11T03:37:42;0.50;;;0.50;;
10967;SDS011;5536;49.602;10.980;2022-11-11T03:40:27;0.50;;;0.50;;
10967;SDS011;5536;49.602;10.980;2022-11-11T03:42:54;0.57;;;0.57;;
10967;SDS011;5536;49.602;10.980;2022-11-11T03:45:22;0.40;;;0.40;;
10967;SDS011;5536;49.602;10.980;2022-11-11T03:47:49;0.63;;;0.40;;
10967;SDS011;5536;49.602;10.980;2022-11-11T03:50:18;0.57;;;0.50;;
10967;SDS011;5536;49.602;10.980;2022-11-11T03:52:46;0.73;;;0.73;;
10967;SDS011;5536;49.602;10.980;2022-11-11T03:55:13;1.27;;;0.70;;
10967;SDS011;5536;49.602;10.980;2022-11-11T03:57:40;0.47;;;0.47;;
10967;SDS011;5536;49.602;10.980;2022-11-11T04:00:09;0.30;;;0.30;;
10967;SDS011;5536;49.602;10.980;2022-11-11T04:02:39;1.33;;;0.57;;
10967;SDS011;5536;49.602;10.980;2022-11-11T04:05:23;1.17;;;0.80;;
10967;SDS011;5536;49.602;10.980;2022-11-11T04:08:10;0.90;;;0.90;;
10967;SDS011;5536;49.602;10.980;2022-11-11T04:10:56;0.30;;;0.30;;
10967;SDS011;5536;49.602;10.980;2022-11-11T04:13:24;0.47;;;0.47;;
10967;SDS011;5536;49.602;10.980;2022-11-11T04:16:09;0.60;;;0.60;;
10967;SDS011;5536;49.602;10.980;2022-11-11T04:18:37;0.50;;;0.50;;
10967;SDS011;5536;49.602;10.980;2022-11-11T04:21:22;0.30;;;0.30;;
10967;SDS011;5536;49.602;10.980;2022-11-11T04:24:07;0.73;;;0.73;;
10967;SDS011;5536;49.602;10.980;2022-11-11T04:26:53;0.80;;;0.80;;
10967;SDS011;5536;49.602;10.980;2022-11-11T04:29:21;0.50;;;0.50;;
10967;SDS011;5536;49.602;10.980;2022-11-11T04:31:58;0.50;;;0.50;;
10967;SDS011;5536;49.602;10.980;2022-11-11T04:34:45;0.40;;;0.40;;
10967;SDS011;5536;49.602;10.980;2022-11-11T04:37:14;0.77;;;0.57;;
10967;SDS011;5536;49.602;10.980;2022-11-11T04:39:42;0.60;;;0.60;;
10967;SDS011;5536;49.602;10.980;2022-11-11T04:42:27;0.40;;;0.40;;
10967;SDS011;5536;49.602;10.980;2022-11-11T04:44:55;0.77;;;0.77;;
10967;SDS011;5536;49.602;10.980;2022-11-11T04:47:51;0.43;;;0.43;;
10967;SDS011;5536;49.602;10.980;2022-11-11T04:50:21;0.80;;;0.80;;
10967;SDS011;5536;49.602;10.980;2022-11-11T04:52:48;0.50;;;0.50;;
10967;SDS011;5536;49.602;10.980;2022-11-11T04:55:15;0.60;;;0.60;;
10967;SDS011;5536;49.602;10.980;2022-11-11T04:58:01;0.27;;;0.27;;
10967;SDS011;5536;49.602;10.980;2022-11-11T05:00:28;0.50;;;0.50;;
10967;SDS011;5536;49.602;10.980;2022-11-11T05:02:56;1.80;;;0.73;;
10967;SDS011;5536;49.602;10.980;2022-11-11T05:05:42;2.10;;;0.70;;
10967;SDS011;5536;49.602;10.980;2022-11-11T05:08:28;0.50;;;0.50;;
10967;SDS011;5536;49.602;10.980;2022-11-11T05:11:13;0.37;;;0.37;;
10967;SDS011;5536;49.602;10.980;2022-11-11T05:13:40;0.50;;;0.50;;
10967;SDS011;5536;49.602;10.980;2022-11-11T05:16:25;0.40;;;0.40;;
10967;SDS011;5536;49.602;10.980;2022-11-11T05:19:13;0.50;;;0.50;;
10967;SDS011;5536;49.602;10.980;2022-11-11T05:22:04;0.73;;;0.50;;
10967;SDS011;5536;49.602;10.980;2022-11-11T05:24:35;0.30;;;0.30;;
10967;SDS011;5536;49.602;10.980;2022-11-11T05:27:19;0.43;;;0.43;;
10967;SDS011;5536;49.602;10.980;2022-11-11T05:29:46;1.13;;;0.93;;
10967;SDS011;5536;49.602;10.980;2022-11-11T05:32:16;0.93;;;0.90;;
10967;SDS011;5536;49.602;10.980;2022-11-11T05:34:44;1.50;;;1.40;;
10967;SDS011;5536;49.602;10.980;2022-11-11T05:37:13;1.03;;;0.93;;
10967;SDS011;5536;49.602;10.980;2022-11-11T05:39:40;0.40;;;0.40;;
10967;SDS011;5536;49.602;10.980;2022-11-11T05:42:07;0.40;;;0.40;;
10967;SDS011;5536;49.602;10.980;2022-11-11T05:44:35;1.13;;;0.50;;
10967;SDS011;5536;49.602;10.980;2022-11-11T05:47:02;0.40;;;0.40;;
10967;SDS011;5536;49.602;10.980;2022-11-11T05:49:31;0.67;;;0.67;;
10967;SDS011;5536;49.602;10.980;2022-11-11T05:52:16;0.80;;;0.80;;
10967;SDS011;5536;49.602;10.980;2022-11-11T05:54:43;0.83;;;0.83;;
10967;SDS011;5536;49.602;10.980;2022-11-11T05:57:11;1.40;;;1.23;;
10967;SDS011;5536;49.602;10.980;2022-11-11T05:59:38;0.60;;;0.60;;
10967;SDS011;5536;49.602;10.980;2022-11-11T06:02:05;0.63;;;0.63;;
10967;SDS011;5536;49.602;10.980;2022-11-11T06:04:32;1.03;;;0.77;;
10967;SDS011;5536;49.602;10.980;2022-11-11T06:07:00;0.50;;;0.50;;
10967;SDS011;5536;49.602;10.980;2022-11-11T06:09:29;0.87;;;0.87;;
10967;SDS011;5536;49.602;10.980;2022-11-11T06:11:56;0.87;;;0.83;;
10967;SDS011;5536;49.602;10.980;2022-11-11T06:14:23;0.50;;;0.50;;
10967;SDS011;5536;49.602;10.980;2022-11-11T06:16:50;0.47;;;0.47;;
10967;SDS011;5536;49.602;10.980;2022-11-11T06:19:17;0.43;;;0.43;;
10967;SDS011;5536;49.602;10.980;2022-11-11T06:21:44;0.30;;;0.30;;
10967;SDS011;5536;49.602;10.980;2022-11-11T06:24:24;0.67;;;0.67;;
10967;SDS011;5536;49.602;10.980;2022-11-11T06:26:53;1.57;;;0.63;;
10967;SDS011;5536;49.602;10.980;2022-11-11T06:29:21;1.00;;;0.67;;
10967;SDS011;5536;49.602;10.980;2022-11-11T06:31:48;0.40;;;0.40;;
10967;SDS011;5536;49.602;10.980;2022-11-11T06:34:15;0.70;;;0.53;;
10967;SDS011;5536;49.602;10.980;2022-11-11T06:36:42;0.20;;;0.20;;
10967;SDS011;5536;49.602;10.980;2022-11-11T06:39:09;0.43;;;0.43;;
10967;SDS011;5536;49.602;10.980;2022-11-11T06:41:37;0.40;;;0.40;;
10967;SDS011;5536;49.602;10.980;2022-11-11T06:44:05;0.40;;;0.40;;
10967;SDS011;5536;49.602;10.980;2022-11-11T06:46:32;0.30;;;0.30;;
10967;SDS011;5536;49.602;10.980;2022-11-11T06:48:59;4.17;;;0.87;;
10967;SDS011;5536;49.602;10.980;2022-11-11T06:51:27;0.40;;;0.40;;
10967;SDS011;5536;49.602;10.980;2022-11-11T06:53:54;0.30;;;0.30;;
10967;SDS011;5536;49.602;10.980;2022-11-11T06:56:21;0.67;;;0.67;;
10967;SDS011;5536;49.602;10.980;2022-11-11T06:58:48;0.40;;;0.40;;
10967;SDS011;5536;49.602;10.980;2022-11-11T07:01:17;0.50;;;0.50;;
10967;SDS011;5536;49.602;10.980;2022-11-11T07:03:44;0.30;;;0.30;;
10967;SDS011;5536;49.602;10.980;2022-11-11T07:06:11;0.30;;;0.30;;
10967;SDS011;5536;49.602;10.980;2022-11-11T07:08:38;0.20;;;0.20;;
10967;SDS011;5536;49.602;10.980;2022-11-11T07:11:08;0.63;;;0.63;;
10967;SDS011;5536;49.602;10.980;2022-11-11T07:13:36;0.53;;;0.53;;
10967;SDS011;5536;49.602;10.980;2022-11-11T07:16:03;0.40;;;0.40;;
10967;SDS011;5536;49.602;10.980;2022-11-11T07:18:32;0.20;;;0.20;;
10967;SDS011;5536;49.602;10.980;2022-11-11T07:20:59;1.00;;;0.73;;
10967;SDS011;5536;49.602;10.980;2022-11-11T07:23:26;0.33;;;0.33;;
10967;SDS011;5536;49.602;10.980;2022-11-11T07:25:53;0.30;;;0.30;;
10967;SDS011;5536;49.602;10.980;2022-11-11T07:28:20;0.80;;;0.80;;
10967;SDS011;5536;49.602;10.980;2022-11-11T07:30:49;1.10;;;1.07;;
10967;SDS011;5536;49.602;10.980;2022-11-11T07:33:16;0.80;;;0.33;;
10967;SDS011;5536;49.602;10.980;2022-11-11T07:35:46;0.30;;;0.30;;
10967;SDS011;5536;49.602;10.980;2022-11-11T07:38:13;1.30;;;0.67;;
10967;SDS011;5536;49.602;10.980;2022-11-11T07:40:40;0.80;;;0.80;;
10967;SDS011;5536;49.602;10.980;2022-11-11T07:43:07;0.97;;;0.97;;
10967;SDS011;5536;49.602;10.980;2022-11-11T07:45:34;1.90;;;0.80;;
10967;SDS011;5536;49.602;10.980;2022-11-11T07:48:01;0.40;;;0.40;;
10967;SDS011;5536;49.602;10.980;2022-11-11T07:50:28;0.40;;;0.40;;
10967;SDS011;5536;49.602;10.980;2022-11-11T07:52:57;1.10;;;1.00;;
10967;SDS011;5536;49.602;10.980;2022-11-11T07:55:24;0.90;;;0.90;;
10967;SDS011;5536;49.602;10.980;2022-11-11T07:57:51;1.80;;;0.77;;
10967;SDS011;5536;49.602;10.980;2022-11-11T08:00:19;10.87;;;0.90;;
10967;SDS011;5536;49.602;10.980;2022-11-11T08:02:47;0.50;;;0.50;;
10967;SDS011;5536;49.602;10.980;2022-11-11T08:05:14;0.50;;;0.50;;
10967;SDS011;5536;49.602;10.980;2022-11-11T08:07:42;0.60;;;0.60;;
10967;SDS011;5536;49.602;10.980;2022-11-11T08:10:10;0.33;;;0.33;;
10967;SDS011;5536;49.602;10.980;2022-11-11T08:12:38;0.43;;;0.43;;
10967;SDS011;5536;49.602;10.980;2022-11-11T08:15:22;1.67;;;0.67;;
10967;SDS011;5536;49.602;10.980;2022-11-11T08:17:51;0.67;;;0.67;;
10967;SDS011;5536;49.602;10.980;2022-11-11T08:20:18;0.60;;;0.60;;
10967;SDS011;5536;49.602;10.980;2022-11-11T08:22:45;0.47;;;0.47;;
10967;SDS011;5536;49.602;10.980;2022-11-11T08:25:15;0.60;;;0.60;;
10967;SDS011;5536;49.602;10.980;2022-11-11T08:27:42;0.93;;;0.63;;
10967;SDS011;5536;49.602;10.980;2022-11-11T08:30:10;0.47;;;0.47;;
10967;SDS011;5536;49.602;10.980;2022-11-11T08:32:37;1.40;;;1.30;;
10967;SDS011;5536;49.602;10.980;2022-11-11T08:35:05;0.60;;;0.60;;
10967;SDS011;5536;49.602;10.980;2022-11-11T08:37:33;1.30;;;0.77;;
10967;SDS011;5536;49.602;10.980;2022-11-11T08:40:00;0.60;;;0.60;;
10967;SDS011;5536;49.602;10.980;2022-11-11T08:42:28;0.30;;;0.30;;
10967;SDS011;5536;49.602;10.980;2022-11-11T08:44:56;0.60;;;0.60;;
10967;SDS011;5536;49.602;10.980;2022-11-11T08:47:23;1.60;;;0.97;;
10967;SDS011;5536;49.602;10.980;2022-11-11T08:49:50;0.77;;;0.70;;
10967;SDS011;5536;49.602;10.980;2022-11-11T08:52:17;1.80;;;0.83;;
10967;SDS011;5536;49.602;10.980;2022-11-11T08:54:45;0.90;;;0.90;;
10967;SDS011;5536;49.602;10.980;2022-11-11T08:57:12;0.70;;;0.70;;
10967;SDS011;5536;49.602;10.980;2022-11-11T08:59:41;1.80;;;1.63;;
10967;SDS011;5536;49.602;10.980;2022-11-11T09:02:09;0.80;;;0.80;;
10967;SDS011;5536;49.602;10.980;2022-11-11T09:04:37;1.03;;;0.77;;
10967;SDS011;5536;49.602;10.980;2022-11-11T09:07:05;0.40;;;0.40;;
10967;SDS011;5536;49.602;10.980;2022-11-11T09:09:34;1.47;;;1.00;;
10967;SDS011;5536;49.602;10.980;2022-11-11T09:12:01;0.77;;;0.77;;
10967;SDS011;5536;49.602;10.980;2022-11-11T09:14:34;1.13;;;1.03;;
10967;SDS011;5536;49.602;10.980;2022-11-11T09:17:03;1.20;;;1.10;;
10967;SDS011;5536;49.602;10.980;2022-11-11T09:19:31;1.27;;;1.27;;
10967;SDS011;5536;49.602;10.980;2022-11-11T09:21:58;1.00;;;1.00;;
10967;SDS011;5536;49.602;10.980;2022-11-11T09:24:25;1.13;;;1.13;;
10967;SDS011;5536;49.602;10.980;2022-11-11T09:26:52;1.70;;;1.07;;
10967;SDS011;5536;49.602;10.980;2022-11-11T09:29:19;3.57;;;0.83;;
10967;SDS011;5536;49.602;10.980;2022-11-11T09:31:46;1.30;;;1.20;;
10967;SDS011;5536;49.602;10.980;2022-11-11T09:34:15;1.03;;;1.00;;
10967;SDS011;5536;49.602;10.980;2022-11-11T09:36:42;0.80;;;0.80;;
10967;SDS011;5536;49.602;10.980;2022-11-11T09:39:09;0.70;;;0.70;;
10967;SDS011;5536;49.602;10.980;2022-11-11T09:41:40;1.10;;;0.93;;
10967;SDS011;5536;49.602;10.980;2022-11-11T09:44:19;0.93;;;0.93;;
10967;SDS011;5536;49.602;10.980;2022-11-11T09:46:58;1.23;;;1.13;;
10967;SDS011;5536;49.602;10.980;2022-11-11T09:52:22;2.20;;;1.97;;
10967;SDS011;5536;49.602;10.980;2022-11-11T09:54:56;1.63;;;1.53;;
10967;SDS011;5536;49.602;10.980;2022-11-11T09:57:31;6.60;;;1.20;;
10967;SDS011;5536;49.602;10.980;2022-11-11T10:00:04;0.60;;;0.60;;
10967;SDS011;5536;49.602;10.980;2022-11-11T10:02:40;1.97;;;1.73;;
10967;SDS011;5536;49.602;10.980;2022-11-11T10:05:14;2.60;;;1.47;;
10967;SDS011;5536;49.602;10.980;2022-11-11T10:07:45;2.27;;;1.13;;
10967;SDS011;5536;49.602;10.980;2022-11-11T10:10:19;1.23;;;1.13;;
10967;SDS011;5536;49.602;10.980;2022-11-11T10:12:53;0.70;;;0.70;;
10967;SDS011;5536;49.602;10.980;2022-11-11T10:15:22;0.97;;;0.97;;
10967;SDS011;5536;49.602;10.980;2022-11-11T10:18:05;1.23;;;0.83;;
10967;SDS011;5536;49.602;10.980;2022-11-11T10:20:51;1.20;;;0.77;;
10967;SDS011;5536;49.602;10.980;2022-11-11T10:23:23;0.83;;;0.83;;
10967;SDS011;5536;49.602;10.980;2022-11-11T10:25:56;1.50;;;1.40;;
10967;SDS011;5536;49.602;10.980;2022-11-11T10:28:28;0.87;;;0.87;;
10967;SDS011;5536;49.602;10.980;2022-11-11T10:31:01;1.10;;;1.10;;
10967;SDS011;5536;49.602;10.980;2022-11-11T10:33:31;1.83;;;1.27;;
10967;SDS011;5536;49.602;10.980;2022-11-11T10:36:12;1.00;;;1.00;;
10967;SDS011;5536;49.602;10.980;2022-11-11T10:38:45;1.90;;;1.80;;
10967;SDS011;5536;49.602;10.980;2022-11-11T10:41:17;1.73;;;1.53;;
10967;SDS011;5536;49.602;10.980;2022-11-11T10:43:46;2.00;;;1.47;;
10967;SDS011;5536;49.602;10.980;2022-11-11T10:46:14;1.20;;;1.10;;
10967;SDS011;5536;49.602;10.980;2022-11-11T10:48:49;2.60;;;1.70;;
10967;SDS011;5536;49.602;10.980;2022-11-11T10:51:21;2.43;;;2.00;;
10967;SDS011;5536;49.602;10.980;2022-11-11T10:53:53;3.17;;;1.93;;
10967;SDS011;5536;49.602;10.980;2022-11-11T10:56:28;2.83;;;1.20;;
10967;SDS011;5536;49.602;10.980;2022-11-11T10:59:02;1.10;;;1.07;;
10967;SDS011;5536;49.602;10.980;2022-11-11T11:01:41;3.87;;;2.03;;
10967;SDS011;5536;49.602;10.980;2022-11-11T11:04:16;1.20;;;1.20;;
10967;SDS011;5536;49.602;10.980;2022-11-11T11:06:54;2.13;;;2.03;;
10967;SDS011;5536;49.602;10.980;2022-11-11T11:09:25;1.60;;;1.50;;
10967;SDS011;5536;49.602;10.980;2022-11-11T11:11:57;1.03;;;1.03;;
10967;SDS011;5536;49.602;10.980;2022-11-11T11:14:31;1.47;;;1.37;;
10967;SDS011;5536;49.602;10.980;2022-11-11T11:17:04;4.07;;;1.50;;
10967;SDS011;5536;49.602;10.980;2022-11-11T11:19:36;1.40;;;1.30;;
10967;SDS011;5536;49.602;10.980;2022-11-11T11:22:05;1.90;;;1.73;;
10967;SDS011;5536;49.602;10.980;2022-11-11T11:24:33;2.57;;;2.17;;
10967;SDS011;5536;49.602;10.980;2022-11-11T11:27:03;2.00;;;1.47;;
10967;SDS011;5536;49.602;10.980;2022-11-11T11:29:35;1.90;;;1.67;;
10967;SDS011;5536;49.602;10.980;2022-11-11T11:32:10;1.60;;;1.40;;
10967;SDS011;5536;49.602;10.980;2022-11-11T11:34:46;2.10;;;1.87;;
10967;SDS011;5536;49.602;10.980;2022-11-11T11:37:18;1.77;;;1.60;;
10967;SDS011;5536;49.602;10.980;2022-11-11T11:39:48;1.53;;;1.43;;
10967;SDS011;5536;49.602;10.980;2022-11-11T11:42:26;1.93;;;1.80;;
10967;SDS011;5536;49.602;10.980;2022-11-11T11:44:54;1.43;;;1.37;;
10967;SDS011;5536;49.602;10.980;2022-11-11T11:47:28;1.57;;;1.40;;
10967;SDS011;5536;49.602;10.980;2022-11-11T11:53:06;2.40;;;1.85;;
10967;SDS011;5536;49.602;10.980;2022-11-11T11:55:47;2.10;;;1.30;;
10967;SDS011;5536;49.602;10.980;2022-11-11T11:58:20;1.52;;;1.30;;
10967;SDS011;5536;49.602;10.980;2022-11-11T12:00:58;2.00;;;1.75;;
10967;SDS011;5536;49.602;10.980;2022-11-11T12:03:45;2.45;;;1.60;;
10967;SDS011;5536;49.602;10.980;2022-11-11T12:06:27;1.50;;;1.40;;
10967;SDS011;5536;49.602;10.980;2022-11-11T12:09:06;2.13;;;1.42;;
10967;SDS011;5536;49.602;10.980;2022-11-11T12:11:43;1.42;;;1.33;;
10967;SDS011;5536;49.602;10.980;2022-11-11T12:14:30;2.67;;;1.55;;
10967;SDS011;5536;49.602;10.980;2022-11-11T12:17:07;1.65;;;1.55;;
10967;SDS011;5536;49.602;10.980;2022-11-11T12:19:46;2.20;;;1.95;;
10967;SDS011;5536;49.602;10.980;2022-11-11T12:22:24;1.42;;;1.33;;
10967;SDS011;5536;49.602;10.980;2022-11-11T12:25:04;1.70;;;1.60;;
10967;SDS011;5536;49.602;10.980;2022-11-11T12:27:44;2.80;;;1.58;;
10967;SDS011;5536;49.602;10.980;2022-11-11T12:30:23;1.45;;;1.35;;
10967;SDS011;5536;49.602;10.980;2022-11-11T12:35:55;3.08;;;1.52;;
10967;SDS011;5536;49.602;10.980;2022-11-11T12:38:36;1.67;;;1.48;;
10967;SDS011;5536;49.602;10.980;2022-11-11T12:41:18;1.95;;;1.35;;
10967;SDS011;5536;49.602;10.980;2022-11-11T12:43:55;1.23;;;1.23;;
10967;SDS011;5536;49.602;10.980;2022-11-11T12:46:31;1.48;;;1.33;;
10967;SDS011;5536;49.602;10.980;2022-11-11T12:49:23;1.90;;;1.38;;
10967;SDS011;5536;49.602;10.980;2022-11-11T12:52:03;1.10;;;1.05;;
10967;SDS011;5536;49.602;10.980;2022-11-11T12:54:42;2.50;;;1.20;;
10967;SDS011;5536;49.602;10.980;2022-11-11T12:57:22;1.52;;;1.42;;
10967;SDS011;5536;49.602;10.980;2022-11-11T13:00:02;1.33;;;1.23;;
10967;SDS011;5536;49.602;10.980;2022-11-11T13:02:41;1.08;;;1.02;;
10967;SDS011;5536;49.602;10.980;2022-11-11T13:05:25;2.60;;;1.45;;
10967;SDS011;5536;49.602;10.980;2022-11-11T13:08:00;0.85;;;0.85;;
10967;SDS011;5536;49.602;10.980;2022-11-11T13:10:44;1.88;;;1.30;;
10967;SDS011;5536;49.602;10.980;2022-11-11T13:16:15;1.23;;;1.13;;
10967;SDS011;5536;49.602;10.980;2022-11-11T13:18:46;2.78;;;1.35;;
10967;SDS011;5536;49.602;10.980;2022-11-11T13:21:18;1.40;;;1.30;;
10967;SDS011;5536;49.602;10.980;2022-11-11T13:23:51;1.42;;;1.30;;
10967;SDS011;5536;49.602;10.980;2022-11-11T13:26:22;1.38;;;1.13;;
10967;SDS011;5536;49.602;10.980;2022-11-11T13:28:57;0.70;;;0.70;;
10967;SDS011;5536;49.602;10.980;2022-11-11T13:31:39;1.48;;;1.38;;
10967;SDS011;5536;49.602;10.980;2022-11-11T13:34:09;1.63;;;1.52;;
10967;SDS011;5536;49.602;10.980;2022-11-11T13:36:40;1.10;;;1.10;;
10967;SDS011;5536;49.602;10.980;2022-11-11T13:39:16;1.35;;;1.25;;
10967;SDS011;5536;49.602;10.980;2022-11-11T13:41:51;0.90;;;0.90;;
10967;SDS011;5536;49.602;10.980;2022-11-11T13:44:23;1.15;;;1.05;;
10967;SDS011;5536;49.602;10.980;2022-11-11T13:46:58;0.88;;;0.88;;
10967;SDS011;5536;49.602;10.980;2022-11-11T13:49:29;1.30;;;1.20;;
10967;SDS011;5536;49.602;10.980;2022-11-11T13:51:59;1.15;;;1.10;;
10967;SDS011;5536;49.602;10.980;2022-11-11T13:54:28;0.63;;;0.63;;
10967;SDS011;5536;49.602;10.980;2022-11-11T13:57:01;0.73;;;0.73;;
10967;SDS011;5536;49.602;10.980;2022-11-11T13:59:34;1.20;;;1.00;;
10967;SDS011;5536;49.602;10.980;2022-11-11T14:02:11;0.70;;;0.70;;
10967;SDS011;5536;49.602;10.980;2022-11-11T14:07:47;0.93;;;0.80;;
10967;SDS011;5536;49.602;10.980;2022-11-11T14:16:10;1.63;;;1.00;;
10967;SDS011;5536;49.602;10.980;2022-11-11T14:18:39;0.97;;;0.97;;
10967;SDS011;5536;49.602;10.980;2022-11-11T14:21:10;0.60;;;0.60;;
10967;SDS011;5536;49.602;10.980;2022-11-11T14:23:57;1.00;;;0.90;;
10967;SDS011;5536;49.602;10.980;2022-11-11T14:26:25;1.60;;;1.23;;
10967;SDS011;5536;49.602;10.980;2022-11-11T14:28:54;0.70;;;0.70;;
10967;SDS011;5536;49.602;10.980;2022-11-11T14:31:30;0.93;;;0.93;;
10967;SDS011;5536;49.602;10.980;2022-11-11T14:34:21;1.00;;;1.00;;
10967;SDS011;5536;49.602;10.980;2022-11-11T14:37:00;0.83;;;0.83;;
10967;SDS011;5536;49.602;10.980;2022-11-11T14:39:35;1.30;;;0.90;;
10967;SDS011;5536;49.602;10.980;2022-11-11T14:42:06;1.30;;;1.20;;
10967;SDS011;5536;49.602;10.980;2022-11-11T14:51:37;0.60;;;0.60;;
10967;SDS011;5536;49.602;10.980;2022-11-11T14:57:18;1.00;;;0.90;;
10967;SDS011;5536;49.602;10.980;2022-11-11T14:59:49;0.60;;;0.60;;
10967;SDS011;5536;49.602;10.980;2022-11-11T15:02:25;0.60;;;0.60;;
10967;SDS011;5536;49.602;10.980;2022-11-11T15:05:00;1.27;;;0.87;;
10967;SDS011;5536;49.602;10.980;2022-11-11T15:07:33;1.00;;;0.70;;
10967;SDS011;5536;49.602;10.980;2022-11-11T15:13:04;0.73;;;0.73;;
10967;SDS011;5536;49.602;10.980;2022-11-11T15:15:48;0.80;;;0.80;;
10967;SDS011;5536;49.602;10.980;2022-11-11T15:21:33;0.73;;;0.73;;
10967;SDS011;5536;49.602;10.980;2022-11-11T15:24:04;0.83;;;0.70;;
10967;SDS011;5536;49.602;10.980;2022-11-11T15:26:41;0.67;;;0.67;;
10967;SDS011;5536;49.602;10.980;2022-11-11T15:29:24;1.43;;;0.97;;
10967;SDS011;5536;49.602;10.980;2022-11-11T15:32:11;2.97;;;1.20;;
10967;SDS011;5536;49.602;10.980;2022-11-11T15:34:46;1.37;;;0.90;;
10967;SDS011;5536;49.602;10.980;2022-11-11T15:37:21;0.87;;;0.87;;
10967;SDS011;5536;49.602;10.980;2022-11-11T15:39:51;0.80;;;0.80;;
10967;SDS011;5536;49.602;10.980;2022-11-11T15:42:23;0.87;;;0.87;;
10967;SDS011;5536;49.602;10.980;2022-11-11T15:44:54;1.47;;;1.13;;
10967;SDS011;5536;49.602;10.980;2022-11-11T15:47:23;0.80;;;0.80;;
10967;SDS011;5536;49.602;10.980;2022-11-11T15:49:51;0.50;;;0.50;;
10967;SDS011;5536;49.602;10.980;2022-11-11T15:52:28;1.27;;;1.23;;
10967;SDS011;5536;49.602;10.980;2022-11-11T15:54:56;0.60;;;0.60;;